Time;durP1;ratioP1;P1;durP2;ratioP2;P2;SDS_P1;SDS_P2;PMS_P1;PMS_P2;Temp;Humidity;BMP_temperature;BMP_pressure;BME280_temperature;BME280_humidity;BME280_pressure;Samples;Min_cycle;Max_cycle;Signal;HPM_P1;HPM_P2
2022/09/03 00:00:22;;;;;;;;;;;15.80;99.90;;;;;;5088576;28;20405;-72
2022/09/03 00:03:03;;;;;;;;;;;15.80;99.90;;;;;;5090653;28;20322;-72
2022/09/03 00:05:50;;;;;;;;;;;15.80;99.90;;;;;;5091844;28;19930;-72
2022/09/03 00:08:41;;;;;;;;;;;15.80;99.90;;;;;;5089562;28;19925;-72
2022/09/03 00:11:22;;;;;;;;;;;15.80;99.90;;;;;;5084867;28;19924;-72
2022/09/03 00:13:57;;;;;;;;;;;15.80;99.90;;;;;;5080491;28;20014;-72
2022/09/03 00:16:43;;;;;;;;;;;15.70;99.90;;;;;;5083535;28;19964;-72
2022/09/03 00:19:19;;;;;;;;;;;15.70;99.90;;;;;;5076792;28;19925;-72
2022/09/03 00:21:56;;;;;;;;;;;15.70;99.90;;;;;;5072643;28;19924;-72
2022/09/03 00:24:32;;;;;;;;;;;15.70;99.90;;;;;;5071671;28;19998;-72
2022/09/03 00:27:05;;;;;;;;;;;15.70;99.90;;;;;;5074095;28;19928;-72
2022/09/03 00:29:37;;;;;;;;;;;15.70;99.90;;;;;;5089638;28;19925;-72
2022/09/03 00:32:12;;;;;;;;;;;15.70;99.90;;;;;;5080562;28;19943;-72
2022/09/03 00:34:48;;;;;;;;;;;15.60;99.90;;;;;;5064118;28;19932;-72
2022/09/03 00:37:19;;;;;;;;;;;15.50;99.90;;;;;;5082605;28;20272;-72
2022/09/03 00:39:53;;;;;;;;;;;15.50;99.90;;;;;;5086960;28;20302;-72
2022/09/03 00:42:24;;;;;;;;;;;15.40;99.90;;;;;;5089476;28;19936;-72
2022/09/03 00:45:29;;;;;;;;;;;15.30;99.90;;;;;;5089976;28;19930;-72
2022/09/03 00:48:01;;;;;;;;;;;15.20;99.90;;;;;;5056709;28;19931;-72
2022/09/03 00:50:59;;;;;;;;;;;15.10;99.90;;;;;;5073791;28;19924;-72
2022/09/03 00:53:37;;;;;;;;;;;15.00;99.90;;;;;;5080720;28;19928;-72
2022/09/03 00:56:28;;;;;;;;;;;14.90;99.90;;;;;;5080671;28;19932;-72
2022/09/03 00:59:06;;;;;;;;;;;14.70;99.90;;;;;;5084936;28;19978;-72
2022/09/03 01:01:37;;;;;;;;;;;14.70;99.90;;;;;;5087455;28;19934;-72
2022/09/03 01:04:16;;;;;;;;;;;14.70;99.90;;;;;;5065870;28;19929;-72
2022/09/03 01:07:00;;;;;;;;;;;14.60;99.90;;;;;;5088921;28;20023;-72
2022/09/03 01:09:35;;;;;;;;;;;14.70;99.90;;;;;;5066593;28;19935;-72
2022/09/03 01:12:31;;;;;;;;;;;14.60;99.90;;;;;;5078775;28;20405;-72
2022/09/03 01:15:09;;;;;;;;;;;14.60;99.90;;;;;;5061416;28;20437;-72
2022/09/03 01:17:53;;;;;;;;;;;14.50;99.90;;;;;;5079033;28;19924;-72
2022/09/03 01:20:30;;;;;;;;;;;14.40;99.90;;;;;;5087220;28;19947;-72
2022/09/03 01:23:20;;;;;;;;;;;14.30;99.90;;;;;;5090099;28;19934;-72
2022/09/03 01:25:52;;;;;;;;;;;14.20;99.90;;;;;;5087717;28;19925;-72
2022/09/03 01:28:32;;;;;;;;;;;14.30;99.90;;;;;;5085810;28;20051;-72
2022/09/03 01:31:25;;;;;;;;;;;14.30;99.90;;;;;;5075579;28;19931;-72
2022/09/03 01:33:57;;;;;;;;;;;14.30;99.90;;;;;;5076298;28;19971;-72
2022/09/03 01:36:32;;;;;;;;;;;14.30;99.90;;;;;;5077973;28;19931;-72
2022/09/03 01:39:05;;;;;;;;;;;14.30;99.90;;;;;;5070400;28;20435;-72
2022/09/03 01:44:38;;;;;;;;;;;14.20;99.90;;;;;;5068083;28;20310;-72
2022/09/03 01:47:21;;;;;;;;;;;14.20;99.90;;;;;;5074120;28;19990;-72
2022/09/03 01:49:56;;;;;;;;;;;14.10;99.90;;;;;;5075725;28;19929;-72
2022/09/03 01:52:28;;;;;;;;;;;14.10;99.90;;;;;;5060597;28;19924;-72
2022/09/03 01:55:09;;;;;;;;;;;14.00;99.90;;;;;;5080027;28;19966;-73
2022/09/03 01:57:54;;;;;;;;;;;14.00;99.90;;;;;;5103875;28;20442;-72
2022/09/03 02:00:27;;;;;;;;;;;14.00;99.90;;;;;;5071055;28;19925;-72
2022/09/03 02:03:04;;;;;;;;;;;14.00;99.90;;;;;;5073086;28;19924;-72
2022/09/03 02:05:36;;;;;;;;;;;13.90;99.90;;;;;;5074562;28;19931;-72
2022/09/03 02:08:08;;;;;;;;;;;13.90;99.90;;;;;;5088873;28;19924;-72
2022/09/03 02:10:42;;;;;;;;;;;13.90;99.90;;;;;;5080587;28;19925;-72
2022/09/03 02:13:18;;;;;;;;;;;13.90;99.90;;;;;;5081991;28;19931;-72
2022/09/03 02:15:47;;;;;;;;;;;13.90;99.90;;;;;;5066210;28;20029;-72
2022/09/03 02:18:24;;;;;;;;;;;13.80;99.90;;;;;;5060695;28;19930;-72
2022/09/03 02:20:56;;;;;;;;;;;13.80;99.90;;;;;;5071018;28;19929;-72
2022/09/03 02:23:27;;;;;;;;;;;13.80;99.90;;;;;;5073880;28;19950;-72
2022/09/03 02:26:01;;;;;;;;;;;13.80;99.90;;;;;;5071822;28;20015;-72
2022/09/03 02:28:32;;;;;;;;;;;13.70;99.90;;;;;;5077615;28;19928;-72
2022/09/03 02:31:04;;;;;;;;;;;13.70;99.90;;;;;;5071373;28;19924;-72
2022/09/03 02:33:38;;;;;;;;;;;13.60;99.90;;;;;;5083939;28;19967;-72
2022/09/03 02:36:11;;;;;;;;;;;13.50;99.90;;;;;;5082526;28;19956;-72
2022/09/03 02:38:43;;;;;;;;;;;13.40;99.90;;;;;;5077250;28;19929;-72
2022/09/03 02:41:15;;;;;;;;;;;13.40;99.90;;;;;;5075868;28;20313;-72
2022/09/03 02:43:48;;;;;;;;;;;13.50;99.90;;;;;;5073218;28;20295;-72
2022/09/03 02:46:22;;;;;;;;;;;13.50;99.90;;;;;;5075326;28;20318;-72
2022/09/03 02:48:54;;;;;;;;;;;13.60;99.90;;;;;;5077442;28;19928;-72
2022/09/03 02:51:25;;;;;;;;;;;13.60;99.90;;;;;;5084710;28;19936;-72
2022/09/03 02:53:52;;;;;;;;;;;13.60;99.90;;;;;;5066473;28;19924;-72
2022/09/03 02:56:19;;;;;;;;;;;13.60;99.90;;;;;;5081148;28;19930;-72
2022/09/03 02:58:50;;;;;;;;;;;13.60;99.90;;;;;;5088035;28;19928;-72
2022/09/03 03:01:22;;;;;;;;;;;13.60;99.90;;;;;;5091606;28;20383;-72
2022/09/03 03:03:49;;;;;;;;;;;13.60;99.90;;;;;;5093306;28;19928;-72
2022/09/03 03:06:21;;;;;;;;;;;13.50;99.90;;;;;;5089303;28;19928;-72
2022/09/03 03:08:54;;;;;;;;;;;13.60;99.90;;;;;;5089092;28;19924;-72
2022/09/03 03:11:27;;;;;;;;;;;13.60;99.90;;;;;;5084927;28;19931;-72
2022/09/03 03:13:58;;;;;;;;;;;13.50;99.90;;;;;;5082217;28;19931;-72
2022/09/03 03:16:30;;;;;;;;;;;13.50;99.90;;;;;;5078974;28;19947;-72
2022/09/03 03:19:01;;;;;;;;;;;13.50;99.90;;;;;;5084584;28;19932;-72
2022/09/03 03:21:33;;;;;;;;;;;13.50;99.90;;;;;;5074827;28;19924;-72
2022/09/03 03:24:05;;;;;;;;;;;13.50;99.90;;;;;;5074285;28;19924;-72
2022/09/03 03:26:36;;;;;;;;;;;13.60;99.90;;;;;;5076344;28;19960;-72
2022/09/03 03:29:12;;;;;;;;;;;13.50;99.90;;;;;;5086121;28;19924;-72
2022/09/03 03:31:44;;;;;;;;;;;13.60;99.90;;;;;;5084659;28;19924;-72
2022/09/03 03:34:16;;;;;;;;;;;13.60;99.90;;;;;;5081993;28;20486;-72
2022/09/03 03:36:47;;;;;;;;;;;13.50;99.90;;;;;;5085214;28;19925;-72
2022/09/03 03:39:19;;;;;;;;;;;13.40;99.90;;;;;;5087949;28;20378;-72
2022/09/03 03:41:51;;;;;;;;;;;13.40;99.90;;;;;;5052146;28;19924;-72
2022/09/03 03:44:19;;;;;;;;;;;13.40;99.90;;;;;;5091341;28;20002;-72
2022/09/03 03:46:50;;;;;;;;;;;13.50;99.90;;;;;;5089792;28;20038;-72
2022/09/03 03:49:17;;;;;;;;;;;13.50;99.90;;;;;;5088218;28;19924;-72
2022/09/03 03:51:48;;;;;;;;;;;13.50;99.90;;;;;;5083987;28;20387;-72
2022/09/03 03:54:15;;;;;;;;;;;13.40;99.90;;;;;;5080743;28;19931;-72
2022/09/03 03:56:47;;;;;;;;;;;13.40;99.90;;;;;;5078894;28;19925;-72
2022/09/03 03:59:18;;;;;;;;;;;13.40;99.90;;;;;;5076227;28;20031;-72
2022/09/03 04:01:50;;;;;;;;;;;13.40;99.90;;;;;;5091342;28;19928;-72
2022/09/03 04:04:22;;;;;;;;;;;13.50;99.90;;;;;;5090827;28;20348;-72
2022/09/03 04:06:53;;;;;;;;;;;13.50;99.90;;;;;;5072788;28;20413;-72
2022/09/03 04:09:25;;;;;;;;;;;13.50;99.90;;;;;;5078538;28;20359;-72
2022/09/03 04:11:57;;;;;;;;;;;13.50;99.90;;;;;;5082699;28;19924;-72
2022/09/03 04:14:28;;;;;;;;;;;13.50;99.90;;;;;;5081156;28;19925;-72
2022/09/03 04:16:55;;;;;;;;;;;13.60;99.90;;;;;;5078232;28;20392;-73
2022/09/03 04:19:29;;;;;;;;;;;13.60;99.90;;;;;;5077272;28;20295;-72
2022/09/03 04:22:00;;;;;;;;;;;13.60;99.90;;;;;;5073246;28;19928;-72
2022/09/03 04:24:32;;;;;;;;;;;13.60;99.90;;;;;;5083607;28;20301;-72
2022/09/03 04:27:04;;;;;;;;;;;13.60;99.90;;;;;;5083583;28;19932;-72
2022/09/03 04:29:35;;;;;;;;;;;13.60;99.90;;;;;;5076807;28;20314;-72
2022/09/03 04:34:52;;;;;;;;;;;13.70;99.90;;;;;;5081561;28;19946;-72
2022/09/03 04:37:24;;;;;;;;;;;13.70;99.90;;;;;;5077331;28;19931;-73
2022/09/03 04:39:56;;;;;;;;;;;13.70;99.90;;;;;;5086723;28;19935;-72
2022/09/03 04:42:22;;;;;;;;;;;13.80;99.90;;;;;;5091324;28;19940;-72
2022/09/03 04:44:54;;;;;;;;;;;13.80;99.90;;;;;;5073664;28;19924;-72
2022/09/03 04:47:26;;;;;;;;;;;13.90;99.90;;;;;;5073170;28;19935;-72
2022/09/03 04:49:53;;;;;;;;;;;13.80;99.90;;;;;;5077976;28;19924;-72
2022/09/03 04:52:20;;;;;;;;;;;13.90;99.90;;;;;;5080411;28;19928;-72
2022/09/03 04:54:52;;;;;;;;;;;13.90;99.90;;;;;;5096546;28;19928;-72
2022/09/03 04:57:23;;;;;;;;;;;14.00;99.90;;;;;;5076101;28;19971;-72
2022/09/03 04:59:55;;;;;;;;;;;14.00;99.90;;;;;;5076054;28;19928;-72
2022/09/03 05:02:27;;;;;;;;;;;14.10;99.90;;;;;;5055920;28;20301;-72
2022/09/03 05:04:58;;;;;;;;;;;14.10;99.90;;;;;;5071857;28;19925;-72
2022/09/03 05:07:37;;;;;;;;;;;14.10;99.90;;;;;;5058363;28;19929;-72
2022/09/03 05:10:14;;;;;;;;;;;14.10;99.90;;;;;;5083961;28;20409;-72
2022/09/03 05:12:41;;;;;;;;;;;14.20;99.90;;;;;;5082847;28;20405;-72
2022/09/03 05:15:13;;;;;;;;;;;14.20;99.90;;;;;;5077796;28;19930;-72
2022/09/03 05:17:45;;;;;;;;;;;14.20;99.90;;;;;;5076912;28;20290;-73
2022/09/03 05:20:16;;;;;;;;;;;14.10;99.90;;;;;;5092637;28;19925;-73
2022/09/03 05:22:48;;;;;;;;;;;14.00;99.90;;;;;;5090605;28;19935;-73
2022/09/03 05:25:20;;;;;;;;;;;14.00;99.90;;;;;;5088881;28;19924;-74
2022/09/03 05:27:53;;;;;;;;;;;14.00;99.90;;;;;;5066901;28;20407;-74
2022/09/03 05:30:22;;;;;;;;;;;14.00;99.90;;;;;;5064277;28;19931;-74
2022/09/03 05:32:54;;;;;;;;;;;13.90;99.90;;;;;;5083196;28;19932;-74
2022/09/03 05:35:25;;;;;;;;;;;13.80;99.90;;;;;;5078863;28;19942;-74
2022/09/03 05:37:59;;;;;;;;;;;13.70;99.90;;;;;;5079968;28;19924;-74
2022/09/03 05:40:32;;;;;;;;;;;13.70;99.90;;;;;;5080099;28;20315;-74
2022/09/03 05:43:04;;;;;;;;;;;13.70;99.90;;;;;;5078991;28;20306;-73
2022/09/03 05:45:36;;;;;;;;;;;13.70;99.90;;;;;;5077256;28;19924;-74
2022/09/03 05:48:07;;;;;;;;;;;13.70;99.90;;;;;;5078382;28;19934;-74
2022/09/03 05:50:39;;;;;;;;;;;13.70;99.90;;;;;;5079137;28;19931;-74
2022/09/03 05:53:11;;;;;;;;;;;13.70;99.90;;;;;;5081372;28;19924;-73
2022/09/03 05:55:42;;;;;;;;;;;13.70;99.90;;;;;;5078785;28;20402;-74
2022/09/03 05:58:14;;;;;;;;;;;13.80;99.90;;;;;;5064912;28;19924;-74
2022/09/03 06:00:46;;;;;;;;;;;13.80;99.90;;;;;;5065541;28;20412;-74
2022/09/03 06:03:18;;;;;;;;;;;13.80;99.90;;;;;;5072561;28;19981;-73
2022/09/03 06:05:50;;;;;;;;;;;13.80;99.90;;;;;;5083008;28;20538;-74
2022/09/03 06:08:17;;;;;;;;;;;13.70;99.90;;;;;;5065294;28;19928;-74
2022/09/03 06:10:43;;;;;;;;;;;13.70;99.90;;;;;;5080833;28;19934;-74
2022/09/03 06:13:10;;;;;;;;;;;13.80;99.90;;;;;;5081885;28;19924;-73
2022/09/03 06:15:42;;;;;;;;;;;13.70;99.90;;;;;;5079182;28;19924;-74
2022/09/03 06:18:13;;;;;;;;;;;13.60;99.90;;;;;;5082929;28;19924;-74
2022/09/03 06:20:40;;;;;;;;;;;13.60;99.90;;;;;;5084399;28;20397;-74
2022/09/03 06:23:07;;;;;;;;;;;13.70;99.90;;;;;;5086898;28;19928;-74
2022/09/03 06:25:38;;;;;;;;;;;13.60;99.90;;;;;;5064289;28;20023;-74
2022/09/03 06:28:10;;;;;;;;;;;13.60;99.90;;;;;;5062897;28;19928;-74
2022/09/03 06:30:42;;;;;;;;;;;13.60;99.90;;;;;;5076432;28;19951;-74
2022/09/03 06:33:08;;;;;;;;;;;13.60;99.90;;;;;;5080727;28;19956;-74
2022/09/03 06:35:40;;;;;;;;;;;13.60;99.90;;;;;;5082748;28;19960;-74
2022/09/03 06:38:13;;;;;;;;;;;13.60;99.90;;;;;;5063392;28;19960;-74
2022/09/03 06:40:50;;;;;;;;;;;13.50;99.90;;;;;;5078929;28;20394;-73
2022/09/03 06:43:22;;;;;;;;;;;13.50;99.90;;;;;;5059730;28;19929;-74
2022/09/03 06:46:09;;;;;;;;;;;13.50;99.90;;;;;;5077448;28;19934;-74
2022/09/03 06:48:41;;;;;;;;;;;13.50;99.90;;;;;;5079183;28;19967;-75
2022/09/03 06:51:17;;;;;;;;;;;13.50;99.90;;;;;;5080991;28;19924;-75
2022/09/03 06:53:49;;;;;;;;;;;13.60;99.90;;;;;;5086429;28;20032;-74
2022/09/03 06:56:25;;;;;;;;;;;13.70;99.90;;;;;;5082700;28;19955;-74
2022/09/03 06:58:58;;;;;;;;;;;13.70;99.90;;;;;;5085197;28;19956;-74
2022/09/03 07:01:30;;;;;;;;;;;13.70;99.90;;;;;;5081557;28;19949;-74
2022/09/03 07:04:03;;;;;;;;;;;13.70;99.90;;;;;;5077504;28;19928;-73
2022/09/03 07:06:36;;;;;;;;;;;13.80;99.90;;;;;;5077499;28;19948;-74
2022/09/03 07:09:08;;;;;;;;;;;13.70;99.90;;;;;;5085437;28;19928;-74
2022/09/03 07:11:45;;;;;;;;;;;13.80;99.90;;;;;;5064822;28;19951;-74
2022/09/03 07:14:17;;;;;;;;;;;13.80;99.90;;;;;;5081780;28;19928;-74
2022/09/03 07:16:49;;;;;;;;;;;13.90;99.90;;;;;;5083792;28;20293;-74
2022/09/03 07:19:21;;;;;;;;;;;14.00;99.90;;;;;;5084756;28;19931;-74
2022/09/03 07:21:52;;;;;;;;;;;14.10;99.90;;;;;;5071303;28;19924;-74
2022/09/03 07:24:24;;;;;;;;;;;14.10;99.90;;;;;;5060617;28;19924;-74
2022/09/03 07:26:56;;;;;;;;;;;14.30;99.90;;;;;;5081912;28;19924;-72
2022/09/03 07:29:28;;;;;;;;;;;14.40;99.90;;;;;;5080171;28;20359;-74
2022/09/03 07:32:00;;;;;;;;;;;14.50;99.90;;;;;;5083272;28;19934;-74
2022/09/03 07:34:34;;;;;;;;;;;14.70;99.90;;;;;;5065070;28;19928;-74
2022/09/03 07:37:06;;;;;;;;;;;14.80;99.90;;;;;;5085078;28;20379;-74
2022/09/03 07:39:40;;;;;;;;;;;14.90;99.90;;;;;;5076348;28;19924;-74
2022/09/03 07:42:11;;;;;;;;;;;14.90;99.90;;;;;;5087650;28;19924;-74
2022/09/03 07:44:43;;;;;;;;;;;15.00;99.90;;;;;;5090496;28;19930;-73
2022/09/03 07:47:17;;;;;;;;;;;15.10;99.90;;;;;;5083572;28;19928;-74
2022/09/03 07:49:48;;;;;;;;;;;15.20;99.90;;;;;;5077850;28;19932;-74
2022/09/03 07:52:20;;;;;;;;;;;15.40;99.90;;;;;;5083999;28;19924;-73
2022/09/03 07:54:52;;;;;;;;;;;15.70;99.90;;;;;;5080534;28;19951;-73
2022/09/03 07:57:23;;;;;;;;;;;15.80;99.90;;;;;;5079020;28;19930;-74
2022/09/03 07:59:55;;;;;;;;;;;16.00;99.90;;;;;;5083843;28;19928;-74
2022/09/03 08:02:37;;;;;;;;;;;16.10;99.90;;;;;;5086410;28;20336;-74
2022/09/03 08:05:08;;;;;;;;;;;16.20;99.90;;;;;;5086563;28;19924;-73
2022/09/03 08:07:40;;;;;;;;;;;16.30;99.90;;;;;;5078878;28;19928;-74
2022/09/03 08:10:07;;;;;;;;;;;16.40;99.90;;;;;;5067588;28;20390;-74
2022/09/03 08:12:38;;;;;;;;;;;16.50;99.90;;;;;;5077837;28;19924;-74
2022/09/03 08:15:10;;;;;;;;;;;16.60;99.90;;;;;;5082468;28;19925;-74
2022/09/03 08:17:42;;;;;;;;;;;16.70;99.90;;;;;;5078935;28;19928;-73
2022/09/03 08:20:14;;;;;;;;;;;16.80;99.90;;;;;;5063164;28;19975;-73
2022/09/03 08:22:47;;;;;;;;;;;16.80;99.90;;;;;;5092111;28;19924;-73
2022/09/03 08:25:18;;;;;;;;;;;16.90;99.90;;;;;;5085052;28;19931;-74
2022/09/03 08:27:50;;;;;;;;;;;17.00;99.90;;;;;;5075856;28;20459;-74
2022/09/03 08:30:23;;;;;;;;;;;17.00;99.90;;;;;;5078213;28;19936;-74
2022/09/03 08:32:55;;;;;;;;;;;17.10;99.90;;;;;;5064156;28;19940;-74
2022/09/03 08:35:30;;;;;;;;;;;17.20;99.90;;;;;;5071341;28;19931;-74
2022/09/03 08:38:04;;;;;;;;;;;17.30;99.90;;;;;;5086379;28;19963;-73
2022/09/03 08:40:36;;;;;;;;;;;17.40;99.90;;;;;;5072953;28;19924;-74
2022/09/03 08:43:16;;;;;;;;;;;17.50;99.90;;;;;;5094582;28;19928;-74
2022/09/03 08:45:47;;;;;;;;;;;17.80;99.90;;;;;;5089433;28;20443;-73
2022/09/03 08:48:21;;;;;;;;;;;18.00;99.90;;;;;;5082315;28;20305;-74
2022/09/03 08:50:51;;;;;;;;;;;18.10;99.90;;;;;;5083661;28;19935;-74
2022/09/03 08:53:29;;;;;;;;;;;18.20;99.90;;;;;;5061847;28;19925;-74
2022/09/03 08:56:09;;;;;;;;;;;18.40;99.90;;;;;;5093493;28;19960;-74
2022/09/03 08:58:44;;;;;;;;;;;18.60;99.90;;;;;;5085737;28;19925;-73
2022/09/03 09:01:35;;;;;;;;;;;18.70;99.90;;;;;;5090574;28;19931;-74
2022/09/03 09:04:22;;;;;;;;;;;18.80;99.90;;;;;;5089207;28;19974;-72
2022/09/03 09:06:56;;;;;;;;;;;18.90;99.90;;;;;;5094620;28;19929;-74
2022/09/03 09:09:29;;;;;;;;;;;19.00;99.90;;;;;;5077418;28;19982;-74
2022/09/03 09:12:20;;;;;;;;;;;19.20;99.90;;;;;;5070880;28;20405;-74
2022/09/03 09:14:54;;;;;;;;;;;19.20;99.90;;;;;;5079403;28;19924;-74
2022/09/03 09:17:38;;;;;;;;;;;19.10;99.90;;;;;;5067737;28;19925;-72
2022/09/03 09:20:10;;;;;;;;;;;19.10;99.90;;;;;;5071425;28;20438;-73
2022/09/03 09:22:46;;;;;;;;;;;19.00;99.90;;;;;;5078323;28;19934;-74
2022/09/03 09:25:21;;;;;;;;;;;18.80;99.90;;;;;;5079026;28;19932;-74
2022/09/03 09:27:57;;;;;;;;;;;18.80;99.90;;;;;;5080531;28;20375;-74
2022/09/03 09:30:24;;;;;;;;;;;18.80;99.90;;;;;;5061594;28;19931;-73
2022/09/03 09:32:59;;;;;;;;;;;18.80;99.90;;;;;;5082205;28;20131;-73
2022/09/03 09:35:30;;;;;;;;;;;18.80;99.90;;;;;;5075385;28;19928;-74
2022/09/03 09:38:02;;;;;;;;;;;18.80;99.90;;;;;;5080253;28;19974;-73
2022/09/03 09:40:35;;;;;;;;;;;18.80;99.90;;;;;;5078295;28;19946;-74
2022/09/03 09:43:07;;;;;;;;;;;18.70;99.90;;;;;;5085980;28;19942;-74
2022/09/03 09:45:33;;;;;;;;;;;18.70;99.90;;;;;;5084024;28;19924;-74
2022/09/03 09:48:25;;;;;;;;;;;18.80;99.90;;;;;;5065329;28;20427;-73
2022/09/03 09:51:05;;;;;;;;;;;18.80;99.90;;;;;;5077870;28;20023;-74
2022/09/03 09:53:38;;;;;;;;;;;18.80;99.90;;;;;;5077710;28;19924;-74
2022/09/03 09:56:20;;;;;;;;;;;18.80;99.90;;;;;;5070217;28;19924;-74
2022/09/03 09:59:05;;;;;;;;;;;18.80;99.90;;;;;;5092983;28;19924;-73
2022/09/03 10:01:38;;;;;;;;;;;18.90;99.90;;;;;;5069846;28;19931;-74
2022/09/03 10:04:23;;;;;;;;;;;18.90;99.90;;;;;;5078630;28;20039;-74
2022/09/03 10:07:13;;;;;;;;;;;18.90;99.90;;;;;;5063199;28;19924;-74
2022/09/03 10:09:45;;;;;;;;;;;18.90;99.90;;;;;;5080526;28;19985;-73
2022/09/03 10:12:23;;;;;;;;;;;18.90;99.90;;;;;;5060523;28;19931;-74
2022/09/03 10:15:04;;;;;;;;;;;19.00;99.90;;;;;;5080941;28;19939;-73
2022/09/03 10:17:45;;;;;;;;;;;19.20;99.90;;;;;;5081136;28;19928;-73
2022/09/03 10:20:36;;;;;;;;;;;19.30;99.90;;;;;;5084659;28;19924;-74
2022/09/03 10:23:22;;;;;;;;;;;19.40;99.90;;;;;;5090280;28;19979;-73
2022/09/03 10:26:03;;;;;;;;;;;19.40;99.90;;;;;;5066649;28;19932;-74
2022/09/03 10:28:30;;;;;;;;;;;19.40;99.90;;;;;;5088402;28;19930;-73
2022/09/03 10:31:05;;;;;;;;;;;19.50;99.90;;;;;;5085353;28;20293;-74
2022/09/03 10:33:56;;;;;;;;;;;19.60;99.90;;;;;;5081793;28;19964;-74
2022/09/03 10:36:33;;;;;;;;;;;19.80;99.90;;;;;;5065284;28;19972;-73
2022/09/03 10:39:20;;;;;;;;;;;20.00;99.90;;;;;;5090125;28;19931;-74
2022/09/03 10:41:58;;;;;;;;;;;20.10;99.90;;;;;;5063262;28;19929;-74
2022/09/03 10:44:45;;;;;;;;;;;20.20;99.90;;;;;;5060604;28;19963;-74
2022/09/03 10:47:20;;;;;;;;;;;20.30;99.90;;;;;;5091869;28;20441;-73
2022/09/03 10:50:13;;;;;;;;;;;20.50;99.90;;;;;;5064923;28;19924;-74
2022/09/03 10:52:54;;;;;;;;;;;20.70;99.90;;;;;;5080061;28;19935;-74
2022/09/03 10:55:45;;;;;;;;;;;20.80;99.90;;;;;;5087085;28;19930;-73
2022/09/03 10:58:37;;;;;;;;;;;20.90;99.90;;;;;;5088384;28;19931;-73
2022/09/03 11:01:31;;;;;;;;;;;21.10;99.90;;;;;;5072369;28;20015;-74
2022/09/03 11:04:09;;;;;;;;;;;21.30;99.90;;;;;;5075192;28;19928;-74
2022/09/03 11:06:45;;;;;;;;;;;21.40;99.90;;;;;;5077640;28;20023;-73
2022/09/03 11:09:23;;;;;;;;;;;21.60;99.90;;;;;;5082321;28;20007;-74
2022/09/03 11:12:00;;;;;;;;;;;21.70;99.90;;;;;;5067397;28;20011;-74
2022/09/03 11:14:39;;;;;;;;;;;21.50;99.90;;;;;;5077328;28;19924;-74
2022/09/03 11:17:13;;;;;;;;;;;21.50;99.90;;;;;;5080638;28;19924;-74
2022/09/03 11:19:48;;;;;;;;;;;21.30;99.90;;;;;;5068107;28;20237;-74
2022/09/03 11:22:17;;;;;;;;;;;21.30;99.90;;;;;;5073265;28;19947;-74
2022/09/03 11:24:52;;;;;;;;;;;21.40;99.90;;;;;;5077558;28;19930;-74
2022/09/03 11:27:30;;;;;;;;;;;21.40;99.90;;;;;;5088146;28;19928;-73
2022/09/03 11:30:12;;;;;;;;;;;21.40;99.90;;;;;;5079065;28;19928;-74
2022/09/03 11:32:42;;;;;;;;;;;21.50;99.90;;;;;;5097937;28;20358;-73
2022/09/03 11:35:23;;;;;;;;;;;21.60;99.90;;;;;;5080271;28;19928;-72
2022/09/03 11:38:02;;;;;;;;;;;21.80;99.90;;;;;;5076498;28;20043;-73
2022/09/03 11:40:33;;;;;;;;;;;22.00;99.90;;;;;;5085551;28;19925;-73
2022/09/03 11:43:23;;;;;;;;;;;22.10;99.90;;;;;;5082531;28;19939;-73
2022/09/03 11:46:04;;;;;;;;;;;22.20;99.90;;;;;;5062594;28;19929;-73
2022/09/03 11:48:35;;;;;;;;;;;22.10;99.90;;;;;;5080511;28;19989;-73
2022/09/03 11:51:25;;;;;;;;;;;22.20;99.90;;;;;;5084174;28;20088;-73
2022/09/03 11:53:57;;;;;;;;;;;22.20;99.90;;;;;;5078997;28;20130;-73
2022/09/03 11:56:29;;;;;;;;;;;22.40;99.90;;;;;;5075392;28;19967;-73
2022/09/03 11:59:04;;;;;;;;;;;22.50;99.90;;;;;;5082959;28;19924;-73
2022/09/03 12:01:36;;;;;;;;;;;22.70;99.90;;;;;;5077092;28;19931;-73
2022/09/03 12:04:13;;;;;;;;;;;22.80;99.90;;;;;;5083538;28;19978;-73
2022/09/03 12:07:07;;;;;;;;;;;22.80;99.90;;;;;;5078931;28;19925;-72
2022/09/03 12:09:53;;;;;;;;;;;22.90;99.90;;;;;;5082579;28;19924;-73
2022/09/03 12:12:47;;;;;;;;;;;23.00;99.90;;;;;;5081588;28;19935;-73
2022/09/03 12:15:42;;;;;;;;;;;23.10;99.90;;;;;;5057190;28;19924;-73
2022/09/03 12:18:21;;;;;;;;;;;23.40;99.90;;;;;;5086244;28;19967;-73
2022/09/03 12:20:58;;;;;;;;;;;23.50;99.90;;;;;;5078300;28;19925;-73
2022/09/03 12:23:32;;;;;;;;;;;23.60;99.90;;;;;;5076702;28;19931;-73
2022/09/03 12:26:05;;;;;;;;;;;23.60;99.90;;;;;;5080807;28;19931;-73
2022/09/03 12:28:35;;;;;;;;;;;23.50;99.90;;;;;;5074360;28;19933;-72
2022/09/03 12:31:24;;;;;;;;;;;23.30;99.90;;;;;;5083272;28;19925;-73
2022/09/03 12:33:59;;;;;;;;;;;23.10;99.90;;;;;;5065872;28;20283;-73
2022/09/03 12:36:48;;;;;;;;;;;23.00;99.90;;;;;;5080222;28;19924;-73
2022/09/03 12:39:15;;;;;;;;;;;22.70;99.90;;;;;;5075189;28;19935;-73
2022/09/03 12:42:02;;;;;;;;;;;22.50;99.90;;;;;;5085818;28;19984;-73
2022/09/03 12:44:34;;;;;;;;;;;22.40;99.90;;;;;;5084919;28;19951;-73
2022/09/03 12:47:09;;;;;;;;;;;22.10;99.90;;;;;;5077039;28;19928;-73
2022/09/03 12:49:40;;;;;;;;;;;22.00;99.90;;;;;;5080519;28;19928;-73
2022/09/03 12:52:23;;;;;;;;;;;21.90;99.90;;;;;;5084183;28;19924;-72
2022/09/03 12:55:01;;;;;;;;;;;21.80;99.90;;;;;;5079509;28;19935;-73
2022/09/03 12:57:36;;;;;;;;;;;21.70;99.90;;;;;;5078768;28;19924;-73
2022/09/03 13:00:09;;;;;;;;;;;21.60;99.90;;;;;;5082485;28;19928;-73
2022/09/03 13:02:54;;;;;;;;;;;21.30;99.90;;;;;;5082022;28;19924;-73
2022/09/03 13:05:34;;;;;;;;;;;20.50;99.90;;;;;;5067158;28;20316;-73
2022/09/03 13:08:04;;;;;;;;;;;19.60;99.90;;;;;;5080809;28;19930;-74
2022/09/03 13:10:40;;;;;;;;;;;18.70;99.90;;;;;;5082280;28;19924;-74
2022/09/03 13:13:16;;;;;;;;;;;18.30;99.90;;;;;;5082510;28;19928;-74
2022/09/03 13:16:04;;;;;;;;;;;18.30;99.90;;;;;;5079713;28;19933;-73
2022/09/03 13:18:44;;;;;;;;;;;18.40;99.90;;;;;;5081891;28;19936;-74
2022/09/03 13:21:33;;;;;;;;;;;18.70;99.90;;;;;;5083089;28;19928;-73
2022/09/03 13:24:05;;;;;;;;;;;18.80;99.90;;;;;;5080063;28;20441;-73
2022/09/03 13:26:44;;;;;;;;;;;18.90;99.90;;;;;;5081386;28;19931;-74
2022/09/03 13:29:42;;;;;;;;;;;18.90;99.90;;;;;;5083269;28;19931;-73
2022/09/03 13:32:17;;;;;;;;;;;18.90;99.90;;;;;;5070652;28;20355;-73
2022/09/03 13:34:55;;;;;;;;;;;19.00;99.90;;;;;;5082562;28;19928;-73
2022/09/03 13:37:46;;;;;;;;;;;18.90;99.90;;;;;;5061408;28;19936;-73
2022/09/03 13:40:28;;;;;;;;;;;18.80;99.90;;;;;;5091498;28;20627;-73
2022/09/03 13:43:06;;;;;;;;;;;18.80;99.90;;;;;;5077154;28;20397;-73
2022/09/03 13:45:38;;;;;;;;;;;18.60;99.90;;;;;;5081020;28;19931;-73
2022/09/03 13:51:06;;;;;;;;;;;18.70;99.90;;;;;;5081165;28;20275;-73
2022/09/03 13:53:35;;;;;;;;;;;18.80;99.90;;;;;;5083188;28;20297;-73
2022/09/03 13:56:06;;;;;;;;;;;18.80;99.90;;;;;;5073417;28;20284;-73
2022/09/03 13:58:36;;;;;;;;;;;18.80;99.90;;;;;;5084482;28;19924;-73
2022/09/03 14:01:20;;;;;;;;;;;18.90;99.90;;;;;;5079855;28;19928;-73
2022/09/03 14:03:54;;;;;;;;;;;19.00;99.90;;;;;;5087588;28;19928;-73
2022/09/03 14:06:37;;;;;;;;;;;19.20;99.90;;;;;;5082367;28;20310;-73
2022/09/03 14:09:32;;;;;;;;;;;19.30;99.90;;;;;;5082361;28;20406;-73
2022/09/03 14:12:14;;;;;;;;;;;19.50;99.90;;;;;;5084904;28;19928;-73
2022/09/03 14:14:49;;;;;;;;;;;19.60;99.90;;;;;;5063857;28;19925;-73
2022/09/03 14:17:42;;;;;;;;;;;19.60;99.90;;;;;;5086216;28;19936;-73
2022/09/03 14:20:19;;;;;;;;;;;19.70;99.90;;;;;;5082690;28;19928;-73
2022/09/03 14:22:53;;;;;;;;;;;19.80;99.90;;;;;;5080543;28;20294;-73
2022/09/03 14:25:26;;;;;;;;;;;19.80;99.90;;;;;;5078367;28;19931;-73
2022/09/03 14:28:16;;;;;;;;;;;19.90;99.90;;;;;;5084489;28;19963;-73
2022/09/03 14:31:04;;;;;;;;;;;20.00;99.90;;;;;;5065263;28;19928;-73
2022/09/03 14:33:55;;;;;;;;;;;20.50;99.90;;;;;;5082530;28;19934;-73
2022/09/03 14:36:54;;;;;;;;;;;20.60;99.90;;;;;;5084051;28;20311;-73
2022/09/03 14:39:44;;;;;;;;;;;20.80;99.90;;;;;;5095528;28;19924;-72
2022/09/03 14:42:19;;;;;;;;;;;21.30;99.90;;;;;;5079513;28;19935;-73
2022/09/03 14:44:56;;;;;;;;;;;21.10;99.90;;;;;;5086156;28;19928;-72
2022/09/03 14:47:43;;;;;;;;;;;21.00;99.90;;;;;;5082989;28;19924;-73
2022/09/03 14:50:17;;;;;;;;;;;20.80;99.90;;;;;;5084148;28;20302;-72
2022/09/03 14:52:58;;;;;;;;;;;20.50;99.90;;;;;;5082702;28;20383;-72
2022/09/03 14:55:36;;;;;;;;;;;20.20;99.90;;;;;;5054207;28;19931;-73
2022/09/03 14:58:26;;;;;;;;;;;19.90;99.90;;;;;;5084077;28;20365;-73
2022/09/03 15:01:04;;;;;;;;;;;19.70;99.90;;;;;;5085259;28;19928;-73
2022/09/03 15:03:45;;;;;;;;;;;19.50;99.90;;;;;;5077044;28;19925;-74
2022/09/03 15:06:20;;;;;;;;;;;19.10;99.90;;;;;;5079164;28;20315;-73
2022/09/03 15:08:54;;;;;;;;;;;18.70;99.90;;;;;;5084285;28;19924;-73
2022/09/03 15:11:29;;;;;;;;;;;18.40;99.90;;;;;;5061533;28;19924;-73
2022/09/03 15:14:08;;;;;;;;;;;18.30;99.90;;;;;;5094236;28;19956;-73